Time;durP1;ratioP1;P1;durP2;ratioP2;P2;SDS_P1;SDS_P2;PMS_P1;PMS_P2;Temp;Humidity;BMP_temperature;BMP_pressure;BME280_temperature;BME280_humidity;BME280_pressure;Samples;Min_cycle;Max_cycle;Signal;HPM_P1;HPM_P2
2024/04/18 00:00:32;;;;;;;8.17;5.60;;;7.10;97.20;;;;;;5488923;26;20317;-87
2024/04/18 00:02:57;;;;;;;7.67;5.67;;;7.10;98.50;;;;;;5490595;26;20212;-89
2024/04/18 00:05:23;;;;;;;6.20;5.47;;;7.20;97.90;;;;;;5487581;26;20250;-86
2024/04/18 00:07:48;;;;;;;6.00;5.40;;;7.00;97.90;;;;;;5488755;26;20347;-86
2024/04/18 00:10:15;;;;;;;6.17;5.57;;;6.90;99.90;;;;;;5490799;26;20681;-86
2024/04/18 00:12:41;;;;;;;7.00;5.23;;;7.00;99.90;;;;;;5488420;26;20232;-88
2024/04/18 00:15:09;;;;;;;5.73;5.13;;;7.00;99.90;;;;;;5488924;26;20220;-90
2024/04/18 00:17:36;;;;;;;6.47;5.53;;;7.00;99.90;;;;;;5489055;26;20779;-88
2024/04/18 00:20:03;;;;;;;6.60;5.53;;;7.10;99.90;;;;;;5488653;26;20224;-89
2024/04/18 00:22:29;;;;;;;6.40;5.80;;;7.00;99.90;;;;;;5489806;26;20288;-87
2024/04/18 00:24:54;;;;;;;6.80;6.10;;;7.10;99.90;;;;;;5488490;26;20220;-87
2024/04/18 00:27:20;;;;;;;7.83;5.43;;;7.00;99.90;;;;;;5488220;26;20243;-90
2024/04/18 00:29:46;;;;;;;8.40;6.03;;;7.00;99.90;;;;;;5487930;26;20768;-87
2024/04/18 00:32:14;;;;;;;8.67;6.57;;;7.00;99.90;;;;;;5487066;26;20228;-87
2024/04/18 00:34:39;;;;;;;8.27;6.47;;;7.00;99.90;;;;;;5488387;26;20221;-89
2024/04/18 00:37:05;;;;;;;7.67;6.60;;;7.00;99.90;;;;;;5486970;26;20597;-88
2024/04/18 00:39:31;;;;;;;7.70;6.63;;;7.00;99.90;;;;;;5487887;26;20247;-91
2024/04/18 00:41:57;;;;;;;7.60;6.73;;;6.90;99.90;;;;;;5487157;26;20312;-88
2024/04/18 00:44:23;;;;;;;9.63;7.00;;;7.00;99.90;;;;;;5489891;26;20216;-87
2024/04/18 00:46:49;;;;;;;7.90;7.10;;;6.90;99.90;;;;;;5451524;26;20725;-87
2024/04/18 00:49:16;;;;;;;8.20;6.80;;;6.90;99.90;;;;;;5453074;26;20261;-88
2024/04/18 00:51:42;;;;;;;8.47;6.80;;;6.90;99.90;;;;;;5451607;26;20267;-87
2024/04/18 00:54:09;;;;;;;8.10;7.03;;;7.00;99.90;;;;;;5450970;26;20224;-88
2024/04/18 00:56:35;;;;;;;7.73;6.93;;;7.00;99.90;;;;;;5452991;26;20319;-86
2024/04/18 00:59:02;;;;;;;8.70;7.73;;;7.00;99.90;;;;;;5453426;26;20259;-88
2024/04/18 01:01:29;;;;;;;8.10;7.23;;;7.10;99.90;;;;;;5454583;26;20260;-88
2024/04/18 01:03:57;;;;;;;10.67;7.50;;;6.90;99.90;;;;;;5453728;26;20225;-91
2024/04/18 01:06:24;;;;;;;8.63;7.40;;;6.90;99.90;;;;;;5453339;26;20225;-88
2024/04/18 01:08:51;;;;;;;8.97;8.00;;;6.80;99.90;;;;;;5453336;26;20217;-86
2024/04/18 01:11:16;;;;;;;10.23;7.70;;;6.80;99.90;;;;;;5455388;26;20309;-90
2024/04/18 01:13:42;;;;;;;9.33;7.00;;;6.90;99.90;;;;;;5454272;26;20225;-88
2024/04/18 01:16:08;;;;;;;8.60;7.53;;;7.00;99.90;;;;;;5452069;26;20225;-86
2024/04/18 01:18:35;;;;;;;8.37;7.50;;;7.00;99.90;;;;;;5455384;26;20256;-87
2024/04/18 01:21:01;;;;;;;9.97;7.70;;;7.00;99.90;;;;;;5454624;26;20217;-90
2024/04/18 01:23:27;;;;;;;8.67;7.77;;;6.80;99.90;;;;;;5453024;26;20605;-88
2024/04/18 01:25:53;;;;;;;8.80;7.80;;;6.80;99.90;;;;;;5453217;26;20252;-89
2024/04/18 01:28:20;;;;;;;9.07;8.00;;;6.90;99.90;;;;;;5454648;26;20213;-86
2024/04/18 01:30:46;;;;;;;7.80;6.53;;;6.90;99.90;;;;;;5451785;26;20283;-86
2024/04/18 01:33:12;;;;;;;9.43;7.47;;;6.90;99.90;;;;;;5453302;26;20221;-88
2024/04/18 01:35:39;;;;;;;8.97;7.90;;;6.90;99.90;;;;;;5453692;26;20229;-89
2024/04/18 01:38:04;;;;;;;10.40;7.93;;;7.00;99.90;;;;;;5453071;26;20248;-91
2024/04/18 01:40:30;;;;;;;9.40;7.77;;;7.20;99.90;;;;;;5453034;26;20686;-87
2024/04/18 01:42:56;;;;;;;8.70;7.47;;;7.30;99.90;;;;;;5454457;26;20225;-89
2024/04/18 01:45:23;;;;;;;8.57;7.67;;;7.30;99.90;;;;;;5452277;26;20395;-88
2024/04/18 01:47:48;;;;;;;8.70;7.53;;;7.30;99.90;;;;;;5452083;26;20230;-86
2024/04/18 01:50:15;;;;;;;11.10;7.47;;;7.10;99.90;;;;;;5456269;26;20221;-88
2024/04/18 01:52:41;;;;;;;9.17;7.23;;;7.00;99.90;;;;;;5457780;26;20217;-90
2024/04/18 01:55:07;;;;;;;10.63;8.03;;;6.90;99.90;;;;;;5456459;26;20289;-88
2024/04/18 01:57:34;;;;;;;10.37;8.13;;;6.80;99.90;;;;;;5456556;26;20243;-86
2024/04/18 02:00:00;;;;;;;9.57;7.77;;;6.80;99.90;;;;;;5455879;26;20237;-88
2024/04/18 02:02:25;;;;;;;8.43;7.63;;;6.80;99.90;;;;;;5455807;26;20264;-88
2024/04/18 02:04:52;;;;;;;10.50;8.07;;;6.80;99.90;;;;;;5457428;26;20214;-88
2024/04/18 02:07:19;;;;;;;11.20;7.77;;;6.60;99.90;;;;;;5458027;26;20214;-87
2024/04/18 02:09:45;;;;;;;9.03;7.67;;;6.50;99.90;;;;;;5457431;26;20259;-87
2024/04/18 02:12:10;;;;;;;9.77;7.80;;;6.50;99.90;;;;;;5455873;26;20226;-88
2024/04/18 02:14:37;;;;;;;9.50;8.50;;;6.50;99.90;;;;;;5458267;26;20229;-88
2024/04/18 02:17:03;;;;;;;10.53;8.10;;;6.50;99.90;;;;;;5457016;26;20717;-89
2024/04/18 02:19:29;;;;;;;9.40;7.83;;;6.30;99.90;;;;;;5456326;26;20776;-86
2024/04/18 02:21:55;;;;;;;8.27;7.37;;;6.30;99.90;;;;;;5456666;26;20225;-87
2024/04/18 02:24:21;;;;;;;8.03;7.07;;;6.20;99.90;;;;;;5457814;26;20298;-86
2024/04/18 02:26:49;;;;;;;9.43;7.40;;;6.20;99.90;;;;;;5455661;26;20754;-87
2024/04/18 02:29:16;;;;;;;9.47;7.20;;;6.30;99.90;;;;;;5456663;26;20224;-91
2024/04/18 02:31:41;;;;;;;9.90;7.80;;;6.30;99.90;;;;;;5456726;26;20223;-89
2024/04/18 02:34:07;;;;;;;8.97;7.10;;;6.30;99.90;;;;;;5467465;26;20280;-86
2024/04/18 02:36:33;;;;;;;8.73;7.80;;;6.10;99.90;;;;;;5495026;26;20352;-86
2024/04/18 02:38:58;;;;;;;10.40;7.50;;;6.10;99.90;;;;;;5492153;26;20224;-86
2024/04/18 02:41:24;;;;;;;9.13;7.33;;;6.10;99.90;;;;;;5492042;26;20217;-86
2024/04/18 02:43:51;;;;;;;11.93;8.10;;;6.00;99.90;;;;;;5492254;26;20220;-86
2024/04/18 02:46:17;;;;;;;11.60;8.50;;;6.10;99.90;;;;;;5492506;26;20236;-88
2024/04/18 02:48:44;;;;;;;10.43;8.90;;;6.20;99.90;;;;;;5493149;26;20220;-87
2024/04/18 02:51:09;;;;;;;11.23;8.43;;;6.30;99.90;;;;;;5493635;26;20220;-89
2024/04/18 02:53:37;;;;;;;9.50;8.43;;;6.30;99.90;;;;;;5496447;26;20651;-88
2024/04/18 02:56:03;;;;;;;9.17;8.27;;;6.20;99.90;;;;;;5492872;26;20227;-87
2024/04/18 02:58:28;;;;;;;13.00;8.60;;;6.20;99.90;;;;;;5493336;26;20315;-87
2024/04/18 03:00:54;;;;;;;10.00;8.07;;;6.20;99.90;;;;;;5491518;26;20247;-90
2024/04/18 03:03:20;;;;;;;9.77;8.43;;;6.20;99.90;;;;;;5491536;26;20244;-86
2024/04/18 03:05:46;;;;;;;9.10;7.73;;;6.20;99.90;;;;;;5494019;26;20797;-89
2024/04/18 03:08:11;;;;;;;11.00;8.63;;;6.20;99.90;;;;;;5496120;26;20757;-91
2024/04/18 03:10:37;;;;;;;10.70;8.30;;;6.10;99.90;;;;;;5493564;26;20228;-90
2024/04/18 03:13:03;;;;;;;12.00;9.10;;;6.30;99.90;;;;;;5494765;26;20236;-88
2024/04/18 03:15:28;;;;;;;11.10;9.67;;;6.30;99.90;;;;;;5494991;26;20247;-88
2024/04/18 03:17:55;;;;;;;10.23;9.13;;;6.30;99.90;;;;;;5494461;26;20255;-86
2024/04/18 03:20:21;;;;;;;10.97;9.77;;;6.50;99.90;;;;;;5493150;26;20216;-89
2024/04/18 03:22:49;;;;;;;11.60;10.43;;;6.60;99.90;;;;;;5495689;26;20259;-88
2024/04/18 03:25:15;;;;;;;9.73;8.73;;;6.60;99.90;;;;;;5494006;26;20250;-85
2024/04/18 03:27:41;;;;;;;10.73;9.63;;;6.40;99.90;;;;;;5494610;26;20228;-90
2024/04/18 03:30:08;;;;;;;10.93;9.70;;;6.40;99.90;;;;;;5493193;26;20213;-90
2024/04/18 03:32:35;;;;;;;10.37;9.33;;;6.40;99.90;;;;;;5496156;26;20220;-87
2024/04/18 03:35:01;;;;;;;11.33;10.03;;;6.30;99.90;;;;;;5493340;26;20220;-89
2024/04/18 03:37:27;;;;;;;12.10;9.80;;;6.30;99.90;;;;;;5491448;26;20255;-87
2024/04/18 03:39:52;;;;;;;12.23;9.77;;;6.40;99.90;;;;;;5491810;26;20217;-88
2024/04/18 03:42:18;;;;;;;11.33;9.77;;;6.40;99.90;;;;;;5491457;26;20695;-86
2024/04/18 03:44:44;;;;;;;11.90;10.10;;;6.30;99.90;;;;;;5491163;26;20220;-87
2024/04/18 03:47:10;;;;;;;13.73;10.47;;;6.40;99.90;;;;;;5492985;26;20294;-88
2024/04/18 03:49:37;;;;;;;12.37;10.53;;;6.50;99.90;;;;;;5491272;26;20240;-90
2024/04/18 03:52:04;;;;;;;12.30;10.30;;;6.70;99.90;;;;;;5490010;26;20224;-87
2024/04/18 03:54:30;;;;;;;11.03;9.70;;;6.70;99.90;;;;;;5493684;26;20212;-89
2024/04/18 03:56:56;;;;;;;11.90;10.60;;;6.80;99.90;;;;;;5492829;26;20318;-90
2024/04/18 03:59:22;;;;;;;12.90;10.77;;;6.80;99.90;;;;;;5490367;26;20224;-87
2024/04/18 04:01:47;;;;;;;12.10;10.23;;;6.90;99.90;;;;;;5491974;26;20680;-90
2024/04/18 04:04:13;;;;;;;11.70;10.10;;;6.70;99.90;;;;;;5490662;26;20224;-87
2024/04/18 04:06:38;;;;;;;13.10;10.80;;;6.60;99.90;;;;;;5490582;26;20285;-90
2024/04/18 04:09:04;;;;;;;13.20;10.80;;;6.70;99.90;;;;;;5491569;26;20573;-87
2024/04/18 04:11:30;;;;;;;11.77;10.53;;;6.50;99.90;;;;;;5488250;26;20221;-87
2024/04/18 04:13:56;;;;;;;12.43;11.13;;;6.40;99.90;;;;;;5490020;26;20343;-86
2024/04/18 04:16:22;;;;;;;12.53;10.43;;;6.50;99.90;;;;;;5490852;26;20272;-86
2024/04/18 04:18:52;;;;;;;13.20;11.33;;;6.60;99.90;;;;;;5489885;26;20225;-88
2024/04/18 04:21:19;;;;;;;12.30;10.93;;;6.70;99.90;;;;;;5490212;26;20238;-86
2024/04/18 04:23:46;;;;;;;16.17;12.37;;;6.70;99.90;;;;;;5494266;26;20247;-87
2024/04/18 04:26:11;;;;;;;15.03;11.57;;;6.60;99.90;;;;;;5493042;26;20272;-88
2024/04/18 04:28:37;;;;;;;13.67;11.50;;;6.40;99.90;;;;;;5490542;26;20669;-86
2024/04/18 04:31:06;;;;;;;15.13;12.33;;;6.50;99.90;;;;;;5491071;26;20558;-87
2024/04/18 04:33:32;;;;;;;16.23;12.33;;;6.60;99.90;;;;;;5493790;26;20402;-87
2024/04/18 04:35:58;;;;;;;13.27;11.83;;;6.70;99.90;;;;;;5489623;26;20321;-88
2024/04/18 04:38:25;;;;;;;14.63;12.27;;;6.70;99.90;;;;;;5490834;26;20228;-87
2024/04/18 04:40:50;;;;;;;14.30;12.17;;;6.50;99.90;;;;;;5492948;26;20220;-88
2024/04/18 04:43:16;;;;;;;13.93;12.50;;;6.40;99.90;;;;;;5490052;26;20307;-88
2024/04/18 04:45:42;;;;;;;15.10;11.83;;;6.50;99.90;;;;;;5491990;26;20285;-90
2024/04/18 04:48:08;;;;;;;16.30;12.87;;;6.30;99.90;;;;;;5490247;26;20229;-91
2024/04/18 04:50:37;;;;;;;15.10;13.13;;;6.40;99.90;;;;;;5491420;26;20570;-90
2024/04/18 04:53:02;;;;;;;15.57;12.63;;;6.40;99.90;;;;;;5489167;26;20224;-89
2024/04/18 04:55:30;;;;;;;17.93;13.53;;;6.40;99.90;;;;;;5491098;26;20250;-88
2024/04/18 04:57:56;;;;;;;18.00;13.77;;;6.40;99.90;;;;;;5490225;26;20239;-88
2024/04/18 05:00:22;;;;;;;15.23;13.63;;;6.40;99.90;;;;;;5491148;26;20288;-87
2024/04/18 05:02:47;;;;;;;17.77;12.73;;;6.40;99.90;;;;;;5489783;26;20225;-88
2024/04/18 05:05:13;;;;;;;15.03;13.43;;;6.30;99.90;;;;;;5487764;26;20341;-87
2024/04/18 05:07:39;;;;;;;16.43;13.97;;;6.50;99.90;;;;;;5489392;26;20659;-89
2024/04/18 05:10:06;;;;;;;16.00;13.57;;;6.60;99.90;;;;;;5490294;26;20278;-89
2024/04/18 05:12:31;;;;;;;14.60;12.77;;;6.60;99.90;;;;;;5490022;26;20232;-86
2024/04/18 05:14:57;;;;;;;14.57;13.07;;;6.40;99.90;;;;;;5491442;26;20242;-86
2024/04/18 05:17:24;;;;;;;17.97;14.53;;;6.30;99.90;;;;;;5491230;26;20232;-86
2024/04/18 05:19:51;;;;;;;18.47;14.17;;;6.50;99.90;;;;;;5488440;26;20293;-88
2024/04/18 05:22:18;;;;;;;18.00;14.20;;;6.60;99.90;;;;;;5488996;26;20289;-90
2024/04/18 05:24:43;;;;;;;20.77;14.50;;;6.80;99.90;;;;;;5491538;26;20739;-87
2024/04/18 05:27:09;;;;;;;17.13;13.67;;;6.80;99.90;;;;;;5492022;26;20220;-88
2024/04/18 05:32:20;;;;;;;15.10;12.63;;;6.60;99.90;;;;;;5495007;26;20802;-86
2024/04/18 05:34:46;;;;;;;16.67;12.77;;;6.50;99.90;;;;;;5493577;26;20220;-87
2024/04/18 05:37:12;;;;;;;15.90;12.90;;;6.50;99.90;;;;;;5493481;26;20252;-87
2024/04/18 05:39:37;;;;;;;17.13;13.00;;;6.60;99.90;;;;;;5495029;26;20216;-90
2024/04/18 05:42:03;;;;;;;16.67;12.10;;;6.70;99.90;;;;;;5494046;26;20220;-89
2024/04/18 05:44:36;;;;;;;15.60;12.70;;;6.70;99.90;;;;;;5490591;26;20252;-90
2024/04/18 05:47:02;;;;;;;15.80;11.70;;;6.70;99.90;;;;;;5492192;26;20244;-88
2024/04/18 05:49:28;;;;;;;15.20;11.83;;;6.80;99.90;;;;;;5491629;26;20224;-89
2024/04/18 05:51:53;;;;;;;13.60;11.37;;;6.80;99.90;;;;;;5493260;26;20321;-91
2024/04/18 05:54:19;;;;;;;14.00;11.47;;;6.80;99.90;;;;;;5495420;26;20263;-89
2024/04/18 05:56:46;;;;;;;13.83;11.93;;;6.80;99.90;;;;;;5493396;26;20224;-92
2024/04/18 05:59:12;;;;;;;12.57;11.07;;;6.90;99.90;;;;;;5493104;26;20221;-92
2024/04/18 06:01:41;;;;;;;13.77;11.57;;;6.90;99.90;;;;;;5494292;26;20259;-88
2024/04/18 06:04:06;;;;;;;13.87;10.50;;;7.00;99.90;;;;;;5492802;26;20317;-94
2024/04/18 06:06:33;;;;;;;13.60;10.60;;;7.00;99.90;;;;;;5493028;26;20224;-87
2024/04/18 06:08:59;;;;;;;10.60;8.37;;;7.10;99.90;;;;;;5494566;26;20355;-90
2024/04/18 06:11:42;;;;;;;10.70;8.30;;;7.10;99.90;;;;;;5481037;26;20266;-89
2024/04/18 06:14:08;;;;;;;12.00;9.07;;;7.00;99.90;;;;;;5473563;26;20255;-86
2024/04/18 06:16:35;;;;;;;9.43;7.37;;;7.10;99.90;;;;;;5491592;26;20263;-88
2024/04/18 06:19:01;;;;;;;11.33;7.63;;;7.10;99.90;;;;;;5493052;26;20224;-88
2024/04/18 06:21:27;;;;;;;10.33;7.40;;;7.10;99.90;;;;;;5477597;26;20297;-85
2024/04/18 06:23:52;;;;;;;8.60;6.67;;;7.10;99.90;;;;;;5455053;26;20237;-87
2024/04/18 06:26:21;;;;;;;8.27;6.43;;;7.10;99.90;;;;;;5451575;26;20317;-88
2024/04/18 06:28:46;;;;;;;7.83;5.60;;;7.10;99.90;;;;;;5452283;26;20225;-87
2024/04/18 06:31:13;;;;;;;7.30;6.33;;;7.00;99.90;;;;;;5452404;26;20583;-87
2024/04/18 06:33:39;;;;;;;9.20;6.33;;;7.10;99.90;;;;;;5451679;26;20281;-85
2024/04/18 06:36:05;;;;;;;8.07;6.50;;;7.20;99.90;;;;;;5460261;26;20228;-86
2024/04/18 06:38:32;;;;;;;7.30;5.90;;;7.20;99.90;;;;;;5490088;26;20242;-87
2024/04/18 06:40:58;;;;;;;7.87;6.00;;;7.40;99.90;;;;;;5490840;26;20246;-84
2024/04/18 06:43:23;;;;;;;8.70;5.20;;;7.50;99.90;;;;;;5489991;26;20551;-86
2024/04/18 06:45:49;;;;;;;7.77;5.87;;;7.50;99.90;;;;;;5490867;26;20224;-84
2024/04/18 06:48:15;;;;;;;10.00;6.07;;;7.50;99.90;;;;;;5489587;26;20645;-85
2024/04/18 06:50:40;;;;;;;8.23;6.07;;;7.70;99.90;;;;;;5490807;26;20731;-87
2024/04/18 06:53:06;;;;;;;8.57;5.27;;;7.60;97.30;;;;;;5488666;26;20296;-86
2024/04/18 06:55:34;;;;;;;7.80;4.70;;;7.60;94.60;;;;;;5491293;26;20236;-86
2024/04/18 06:58:00;;;;;;;8.80;3.97;;;7.60;91.20;;;;;;5490930;26;20224;-87
2024/04/18 07:00:27;;;;;;;8.60;4.40;;;7.60;91.90;;;;;;5488187;26;20224;-86
2024/04/18 07:02:53;;;;;;;7.63;4.73;;;7.70;93.10;;;;;;5479559;26;20237;-85
2024/04/18 07:05:19;;;;;;;6.90;4.43;;;8.10;98.80;;;;;;5464661;26;20226;-86
2024/04/18 07:07:45;;;;;;;5.83;3.97;;;8.00;85.30;;;;;;5472107;26;20747;-86
2024/04/18 07:10:10;;;;;;;5.60;4.10;;;8.00;76.90;;;;;;5473639;26;20331;-85
2024/04/18 07:12:37;;;;;;;6.83;4.63;;;7.90;76.20;;;;;;5469376;26;20255;-86
2024/04/18 07:15:02;;;;;;;5.93;3.97;;;8.00;78.80;;;;;;5474101;26;20336;-85
2024/04/18 07:17:28;;;;;;;7.20;4.63;;;8.10;70.80;;;;;;5470339;26;20237;-87
2024/04/18 07:19:54;;;;;;;7.13;3.73;;;8.10;65.60;;;;;;5477664;26;20241;-84
2024/04/18 07:22:19;;;;;;;8.07;4.10;;;8.20;60.10;;;;;;5474732;26;20244;-85
2024/04/18 07:24:45;;;;;;;6.47;3.77;;;8.30;60.60;;;;;;5471146;26;20241;-86
2024/04/18 07:27:11;;;;;;;8.53;3.77;;;8.40;58.00;;;;;;5467451;26;20271;-87
2024/04/18 07:29:37;;;;;;;6.80;3.80;;;8.40;56.40;;;;;;5466559;26;20286;-86
2024/04/18 07:32:03;;;;;;;9.17;3.93;;;8.60;54.10;;;;;;5472380;26;20270;-86
2024/04/18 07:34:29;;;;;;;6.20;3.60;;;8.60;45.40;;;;;;5473935;26;20224;-86
2024/04/18 07:36:55;;;;;;;7.57;3.77;;;8.70;40.10;;;;;;5469256;26;20234;-86
2024/04/18 07:39:21;;;;;;;5.47;3.47;;;8.70;37.80;;;;;;5467338;26;20237;-86
2024/04/18 07:41:47;;;;;;;9.07;3.40;;;8.70;34.10;;;;;;5463155;26;20329;-85
2024/04/18 07:44:13;;;;;;;6.13;2.93;;;8.70;32.50;;;;;;5467883;26;20228;-84
2024/04/18 07:46:39;;;;;;;7.50;3.37;;;8.70;25.50;;;;;;5475146;26;20828;-88
2024/04/18 07:49:07;;;;;;;7.47;4.93;;;8.70;28.50;;;;;;5470268;26;20307;-87
2024/04/18 07:51:32;;;;;;;4.93;3.10;;;8.90;29.00;;;;;;5462968;26;20712;-85
2024/04/18 07:53:58;;;;;;;6.03;3.10;;;8.90;22.20;;;;;;5471522;26;20225;-87
2024/04/18 07:56:24;;;;;;;6.57;3.03;;;9.00;17.10;;;;;;5467807;26;20663;-88
2024/04/18 07:58:51;;;;;;;5.93;2.90;;;9.00;19.80;;;;;;5471569;26;20271;-86
2024/04/18 08:01:16;;;;;;;5.17;2.47;;;9.10;18.30;;;;;;5471809;26;20272;-87
2024/04/18 08:03:42;;;;;;;8.00;3.23;;;9.10;11.10;;;;;;5473422;26;20701;-87
2024/04/18 08:06:08;;;;;;;7.33;3.23;;;9.10;9.40;;;;;;5473771;26;20245;-85
2024/04/18 08:08:33;;;;;;;6.03;2.80;;;9.20;4.70;;;;;;5471727;26;20680;-85
2024/04/18 08:11:01;;;;;;;6.20;2.57;;;9.30;5.80;;;;;;5478573;26;20289;-86
2024/04/18 08:13:27;;;;;;;5.67;2.30;;;9.20;1.00;;;;;;5453112;26;20263;-86
2024/04/18 08:15:52;;;;;;;5.63;2.43;;;9.20;1.00;;;;;;5454433;26;20218;-87
2024/04/18 08:18:19;;;;;;;9.60;2.87;;;9.30;1.00;;;;;;5454207;26;20274;-86
2024/04/18 08:20:46;;;;;;;6.80;2.57;;;9.50;1.00;;;;;;5451960;26;20821;-85
2024/04/18 08:23:11;;;;;;;4.83;2.27;;;9.70;1.00;;;;;;5453160;26;20252;-88
2024/04/18 08:25:37;;;;;;;6.80;2.37;;;9.60;1.00;;;;;;5452184;26;20225;-87
2024/04/18 08:28:06;;;;;;;6.60;2.27;;;9.70;1.00;;;;;;5452404;26;20233;-87
2024/04/18 08:30:32;;;;;;;5.90;2.23;;;9.80;1.00;;;;;;5451523;26;20229;-84
2024/04/18 08:32:57;;;;;;;4.33;2.23;;;9.70;1.00;;;;;;5453980;26;20685;-86
2024/04/18 08:35:23;;;;;;;7.70;3.03;;;9.70;1.00;;;;;;5452505;26;20219;-86
2024/04/18 08:37:50;;;;;;;7.33;3.13;;;9.90;1.00;;;;;;5467054;26;20610;-87
2024/04/18 08:40:16;;;;;;;5.87;2.70;;;10.20;1.00;;;;;;5452949;26;20226;-86
2024/04/18 08:42:42;;;;;;;4.13;1.70;;;10.20;1.00;;;;;;5453987;26;20711;-86
2024/04/18 08:45:08;;;;;;;7.90;1.90;;;10.30;1.00;;;;;;5452953;26;20283;-87
2024/04/18 08:47:35;;;;;;;7.17;2.10;;;10.40;1.00;;;;;;5452853;26;20264;-85
2024/04/18 08:50:04;;;;;;;4.20;1.60;;;10.40;1.00;;;;;;5454824;26;20213;-87
2024/04/18 08:52:33;;;;;;;2.97;1.50;;;10.30;1.00;;;;;;5451292;26;20264;-86
2024/04/18 08:54:59;;;;;;;4.23;1.70;;;10.30;1.00;;;;;;5452527;26;20222;-87
2024/04/18 08:57:26;;;;;;;4.57;2.27;;;10.30;1.00;;;;;;5450871;26;20265;-86
2024/04/18 08:59:58;;;;;;;3.70;1.60;;;10.30;1.00;;;;;;5454671;26;20346;-85
2024/04/18 09:02:25;;;;;;;5.10;1.67;;;10.30;1.00;;;;;;5454811;26;20229;-86
2024/04/18 09:04:51;;;;;;;6.90;1.60;;;10.50;1.00;;;;;;5454090;26;20607;-87
2024/04/18 09:07:17;;;;;;;4.80;1.60;;;10.70;1.00;;;;;;5454549;26;20225;-86
2024/04/18 09:09:43;;;;;;;4.80;2.00;;;10.80;1.00;;;;;;5455971;26;20253;-87
2024/04/18 09:12:10;;;;;;;3.30;1.67;;;10.80;1.00;;;;;;5456925;26;20214;-86
2024/04/18 09:14:37;;;;;;;4.37;1.40;;;10.90;1.00;;;;;;5454938;26;20248;-88
2024/04/18 09:17:13;;;;;;;5.30;1.90;;;11.00;1.00;;;;;;5454851;26;20258;-86
2024/04/18 09:19:38;;;;;;;3.90;1.50;;;11.00;1.00;;;;;;5456146;26;20218;-85
2024/04/18 09:22:04;;;;;;;4.33;1.40;;;11.00;1.00;;;;;;5455219;26;20650;-87
2024/04/18 09:24:30;;;;;;;4.47;1.50;;;10.90;1.00;;;;;;5454292;26;20275;-85
2024/04/18 09:26:58;;;;;;;4.03;1.23;;;10.60;1.00;;;;;;5457266;26;20698;-87
2024/04/18 09:29:23;;;;;;;5.10;1.43;;;10.50;1.00;;;;;;5455348;26;20256;-86
2024/04/18 09:31:51;;;;;;;4.07;1.50;;;10.50;1.00;;;;;;5454546;26;20226;-87
2024/04/18 09:34:18;;;;;;;5.40;1.67;;;10.60;1.00;;;;;;5452415;26;20399;-86
2024/04/18 09:36:45;;;;;;;3.70;2.13;;;10.80;1.00;;;;;;5455951;26;20221;-87
2024/04/18 09:39:19;;;;;;;5.30;2.13;;;10.60;1.00;;;;;;5454295;26;20226;-87
2024/04/18 09:41:51;;;;;;;4.97;2.20;;;10.60;1.00;;;;;;5453278;26;20260;-86
2024/04/18 09:44:21;;;;;;;3.80;1.93;;;10.50;1.00;;;;;;5454719;26;20228;-85
2024/04/18 09:46:50;;;;;;;4.07;1.90;;;10.40;1.00;;;;;;5455480;26;20261;-85
2024/04/18 09:49:18;;;;;;;4.90;2.03;;;10.40;1.00;;;;;;5454911;26;20215;-85
2024/04/18 09:51:45;;;;;;;4.27;1.87;;;10.40;1.00;;;;;;5453482;26;20331;-86
2024/04/18 09:54:12;;;;;;;5.60;2.00;;;10.40;1.00;;;;;;5452462;26;20279;-86
2024/04/18 09:56:38;;;;;;;2.97;1.70;;;10.60;1.00;;;;;;5454445;26;20292;-84
2024/04/18 09:59:04;;;;;;;6.40;1.90;;;10.60;1.00;;;;;;5454835;26;20291;-85
2024/04/18 10:01:35;;;;;;;6.13;1.83;;;10.70;1.00;;;;;;5451833;26;20223;-86
2024/04/18 10:04:00;;;;;;;5.90;1.87;;;10.90;1.00;;;;;;5453432;26;20222;-86
2024/04/18 10:06:35;;;;;;;6.70;1.80;;;10.80;1.00;;;;;;5455668;26;20581;-86
2024/04/18 10:09:03;;;;;;;3.63;1.53;;;10.90;1.00;;;;;;5452055;26;20228;-86
2024/04/18 10:11:29;;;;;;;3.80;1.90;;;11.20;1.00;;;;;;5454450;26;20256;-84
2024/04/18 10:14:02;;;;;;;5.97;2.00;;;11.40;1.00;;;;;;5454701;26;20238;-85
2024/04/18 10:16:29;;;;;;;4.77;1.63;;;11.40;1.00;;;;;;5455537;26;20263;-85
2024/04/18 10:18:55;;;;;;;4.30;2.10;;;11.40;1.00;;;;;;5455915;26;20322;-85
2024/04/18 10:21:21;;;;;;;2.70;1.60;;;11.40;1.00;;;;;;5456638;26;20284;-86
2024/04/18 10:23:48;;;;;;;3.37;1.77;;;11.50;1.00;;;;;;5454897;26;20727;-86
2024/04/18 10:26:14;;;;;;;5.27;2.07;;;11.60;1.00;;;;;;5452055;26;20248;-85
2024/04/18 10:28:44;;;;;;;3.43;2.20;;;11.60;1.00;;;;;;5453995;26;20225;-85
2024/04/18 10:31:10;;;;;;;6.20;3.00;;;11.50;1.00;;;;;;5453981;26;20660;-85
2024/04/18 10:33:38;;;;;;;3.47;1.73;;;11.50;1.00;;;;;;5454145;26;20604;-88
2024/04/18 10:36:13;;;;;;;6.27;2.60;;;11.30;1.00;;;;;;5454004;26;20218;-85
2024/04/18 10:38:44;;;;;;;4.43;2.00;;;11.30;1.00;;;;;;5452970;26;20222;-85
2024/04/18 10:41:14;;;;;;;4.10;1.77;;;11.30;1.00;;;;;;5453216;26;20280;-86
2024/04/18 10:43:46;;;;;;;4.80;1.90;;;11.20;1.00;;;;;;5455272;26;20263;-85
2024/04/18 10:46:13;;;;;;;4.60;2.00;;;11.20;1.00;;;;;;5452551;26;20221;-86
2024/04/18 10:48:42;;;;;;;4.17;1.97;;;11.00;1.00;;;;;;5456041;26;20663;-84
2024/04/18 10:51:08;;;;;;;8.47;2.37;;;11.10;1.00;;;;;;5454790;26;20304;-85
2024/04/18 10:53:38;;;;;;;9.03;2.90;;;11.30;1.00;;;;;;5454588;26;20262;-85
2024/04/18 10:56:04;;;;;;;7.83;3.03;;;11.60;1.00;;;;;;5453982;26;20225;-85
2024/04/18 10:58:30;;;;;;;6.50;2.80;;;11.70;1.00;;;;;;5453137;26;20220;-86
2024/04/18 11:01:00;;;;;;;5.03;2.23;;;11.80;1.00;;;;;;5453624;26;20229;-85
2024/04/18 11:03:27;;;;;;;4.33;2.50;;;12.00;1.00;;;;;;5455992;26;20574;-88
2024/04/18 11:05:54;;;;;;;4.47;2.43;;;12.10;1.00;;;;;;5453652;26;20669;-87
2024/04/18 11:08:20;;;;;;;4.63;2.43;;;11.90;1.00;;;;;;5455398;26;20544;-88
2024/04/18 11:10:46;;;;;;;5.83;2.30;;;11.90;1.00;;;;;;5453798;26;20230;-87
2024/04/18 11:13:13;;;;;;;3.70;1.80;;;11.90;1.00;;;;;;5466232;26;20239;-85
2024/04/18 11:15:40;;;;;;;6.13;1.80;;;12.00;1.00;;;;;;5488567;26;20229;-85
2024/04/18 11:18:06;;;;;;;4.13;1.97;;;11.90;1.00;;;;;;5486232;26;20262;-86
2024/04/18 11:20:34;;;;;;;7.67;2.00;;;11.80;1.00;;;;;;5487536;26;20216;-88
2024/04/18 11:23:02;;;;;;;3.33;1.80;;;11.70;1.00;;;;;;5488757;26;20211;-88
2024/04/18 11:25:28;;;;;;;4.60;1.70;;;11.70;1.00;;;;;;5489131;26;20566;-87
2024/04/18 11:27:55;;;;;;;2.70;1.47;;;11.80;1.00;;;;;;5493005;26;20216;-87
2024/04/18 11:30:23;;;;;;;4.00;1.40;;;11.90;1.00;;;;;;5490731;26;20332;-88
2024/04/18 11:32:56;;;;;;;2.10;1.30;;;11.80;1.00;;;;;;5492466;26;20696;-88
2024/04/18 11:35:22;;;;;;;2.80;1.40;;;11.90;1.00;;;;;;5490031;26;20818;-87
2024/04/18 11:37:48;;;;;;;6.40;1.50;;;12.00;1.00;;;;;;5487592;26;20270;-86
2024/04/18 11:40:14;;;;;;;4.80;1.50;;;12.20;1.00;;;;;;5490480;26;20701;-86
2024/04/18 11:42:41;;;;;;;5.13;1.60;;;12.40;1.00;;;;;;5489515;26;20252;-85
2024/04/18 11:45:08;;;;;;;3.13;1.50;;;12.40;1.00;;;;;;5489002;26;20216;-86
2024/04/18 11:47:34;;;;;;;2.83;1.57;;;12.30;1.00;;;;;;5486749;26;20233;-88
2024/04/18 11:50:02;;;;;;;3.77;1.63;;;12.20;1.00;;;;;;5488829;26;20220;-87
2024/04/18 11:52:27;;;;;;;4.87;1.63;;;12.10;1.00;;;;;;5489097;26;20238;-88
2024/04/18 11:54:53;;;;;;;3.10;1.50;;;11.90;1.00;;;;;;5490685;26;20676;-87
2024/04/18 11:57:18;;;;;;;4.17;1.33;;;11.80;1.00;;;;;;5487849;26;20647;-85
2024/04/18 11:59:44;;;;;;;3.90;1.63;;;11.80;1.00;;;;;;5488779;26;20659;-87
2024/04/18 12:02:10;;;;;;;2.73;1.00;;;11.80;1.00;;;;;;5489203;26;20651;-87
2024/04/18 12:04:36;;;;;;;4.17;0.90;;;11.90;1.00;;;;;;5489042;26;20246;-85
2024/04/18 12:07:02;;;;;;;1.50;0.93;;;12.10;1.00;;;;;;5488754;26;20219;-87
2024/04/18 12:09:28;;;;;;;2.17;1.23;;;12.20;1.00;;;;;;5487829;26;20254;-86
2024/04/18 12:11:54;;;;;;;3.10;1.37;;;12.20;1.00;;;;;;5488769;26;20283;-85
2024/04/18 12:14:20;;;;;;;4.37;1.77;;;12.30;1.00;;;;;;5490424;26;20542;-87
2024/04/18 12:16:45;;;;;;;6.07;1.67;;;12.30;1.00;;;;;;5488207;26;20228;-88
2024/04/18 12:19:11;;;;;;;3.73;1.70;;;12.30;1.00;;;;;;5491848;26;20295;-87
2024/04/18 12:21:36;;;;;;;2.37;1.50;;;12.10;1.00;;;;;;5488957;26;20723;-87
2024/04/18 12:24:04;;;;;;;5.33;1.70;;;12.30;1.00;;;;;;5488355;26;20266;-87
2024/04/18 12:26:30;;;;;;;5.00;1.97;;;12.70;1.00;;;;;;5490959;26;20316;-88
2024/04/18 12:28:56;;;;;;;3.63;1.40;;;13.10;1.00;;;;;;5489722;26;20216;-87
2024/04/18 12:31:22;;;;;;;3.50;1.37;;;13.00;1.00;;;;;;5489357;26;20286;-87
2024/04/18 12:33:47;;;;;;;3.60;1.50;;;13.00;1.00;;;;;;5489340;26;20216;-87
2024/04/18 12:36:13;;;;;;;4.43;1.77;;;13.10;1.00;;;;;;5489603;26;20224;-87
2024/04/18 12:38:39;;;;;;;2.77;1.60;;;13.00;1.00;;;;;;5491309;26;20659;-88
2024/04/18 12:41:05;;;;;;;3.73;1.60;;;12.50;1.00;;;;;;5488789;26;20221;-88
2024/04/18 12:43:31;;;;;;;4.53;1.80;;;12.60;1.00;;;;;;5489921;26;20222;-87
2024/04/18 12:45:59;;;;;;;5.53;1.87;;;12.50;1.00;;;;;;5491634;26;20224;-87
2024/04/18 12:48:27;;;;;;;3.67;1.40;;;12.40;1.00;;;;;;5489238;26;20220;-88
2024/04/18 12:50:52;;;;;;;4.77;1.50;;;12.40;1.00;;;;;;5488112;26;20226;-87